createdAt,value
2022-10-22T00:01:16.192Z,83.28
2022-10-22T00:03:44.012Z,83.32
2022-10-22T00:06:11.980Z,83.36
2022-10-22T00:08:40.038Z,83.39
2022-10-22T00:11:14.201Z,83.44
2022-10-22T00:13:42.377Z,83.49
2022-10-22T00:16:10.307Z,83.52
2022-10-22T00:18:39.133Z,83.55
2022-10-22T00:21:07.809Z,83.55
2022-10-22T00:23:35.585Z,83.56
2022-10-22T00:26:03.420Z,83.58
2022-10-22T00:28:31.254Z,83.61
2022-10-22T00:31:00.468Z,83.62
2022-10-22T00:33:29.478Z,83.65
2022-10-22T00:35:57.691Z,83.69
2022-10-22T00:38:25.919Z,83.73
2022-10-22T00:40:53.689Z,83.77
2022-10-22T00:43:22.193Z,83.76
2022-10-22T00:45:49.885Z,83.76
2022-10-22T00:48:26.112Z,83.77
2022-10-22T00:51:01.569Z,83.78
2022-10-22T00:53:38.433Z,83.78
2022-10-22T00:56:06.825Z,83.78
2022-10-22T00:58:37.813Z,83.78
2022-10-22T01:01:06.655Z,83.81
2022-10-22T01:03:34.518Z,83.80
2022-10-22T01:06:05.345Z,83.76
2022-10-22T01:08:39.118Z,83.68
2022-10-22T01:11:21.664Z,83.62
2022-10-22T01:14:06.276Z,83.56
2022-10-22T01:17:00.368Z,83.57
2022-10-22T01:19:42.012Z,83.41
2022-10-22T01:22:20.840Z,83.33
2022-10-22T01:25:07.632Z,83.30
2022-10-22T01:28:15.847Z,83.23
2022-10-22T01:30:45.388Z,83.16
2022-10-22T01:33:16.123Z,83.09
2022-10-22T01:35:45.367Z,83.05
2022-10-22T01:38:17.938Z,82.98
2022-10-22T01:40:46.651Z,82.94
2022-10-22T01:43:15.251Z,82.88
2022-10-22T01:45:49.270Z,82.83
2022-10-22T01:48:44.731Z,82.79
2022-10-22T01:51:59.904Z,82.85
2022-10-22T01:54:48.045Z,82.86
2022-10-22T01:57:40.095Z,82.87
2022-10-22T02:00:10.341Z,82.87
2022-10-22T02:03:10.900Z,82.83
2022-10-22T02:05:48.500Z,82.77
2022-10-22T02:08:20.970Z,82.74
2022-10-22T02:10:49.832Z,82.76
2022-10-22T02:13:24.398Z,82.77
2022-10-22T02:15:53.663Z,82.79
2022-10-22T02:18:25.670Z,82.77
2022-10-22T02:20:53.806Z,82.76
2022-10-22T02:23:22.190Z,82.80
2022-10-22T02:25:57.971Z,82.82
2022-10-22T02:28:32.920Z,82.79
2022-10-22T02:31:07.595Z,82.77
2022-10-22T02:33:42.719Z,82.78
2022-10-22T02:36:10.855Z,82.78
2022-10-22T02:38:39.416Z,82.82
2022-10-22T02:41:07.199Z,82.79
2022-10-22T02:43:50.457Z,82.78
2022-10-22T02:46:18.300Z,82.77
2022-10-22T02:48:46.045Z,82.79
2022-10-22T02:51:13.849Z,82.82
2022-10-22T02:53:41.800Z,82.85
2022-10-22T02:56:09.991Z,82.84
2022-10-22T02:58:37.717Z,82.88
2022-10-22T03:01:06.048Z,82.90
2022-10-22T03:03:33.891Z,82.92
2022-10-22T03:06:01.688Z,82.95
2022-10-22T03:08:29.523Z,82.98
2022-10-22T03:10:57.315Z,83.00
2022-10-22T03:13:25.140Z,83.02
2022-10-22T03:15:52.941Z,83.05
2022-10-22T03:18:20.739Z,83.07
2022-10-22T03:20:48.640Z,83.10
2022-10-22T03:23:18.872Z,83.13
2022-10-22T03:25:48.139Z,83.16
2022-10-22T03:28:17.393Z,83.22
2022-10-22T03:30:45.134Z,83.27
2022-10-22T03:33:12.960Z,83.33
2022-10-22T03:35:45.011Z,83.36
2022-10-22T03:38:13.845Z,83.41
2022-10-22T03:40:42.855Z,83.42
2022-10-22T03:43:10.643Z,83.44
2022-10-22T03:48:10.854Z,83.50
2022-10-22T03:50:38.598Z,83.51
2022-10-22T03:53:07.278Z,83.54
2022-10-22T03:55:35.035Z,83.59
2022-10-22T03:58:02.772Z,83.62
2022-10-22T04:00:30.595Z,83.63
2022-10-22T04:02:58.419Z,83.65
2022-10-22T04:05:26.200Z,83.68
2022-10-22T04:07:54.048Z,83.72
2022-10-22T04:10:21.744Z,83.76
2022-10-22T04:12:49.681Z,83.80
2022-10-22T04:15:18.029Z,83.82
2022-10-22T04:17:45.782Z,83.83
2022-10-22T04:20:13.545Z,83.85
2022-10-22T04:22:41.290Z,83.88
2022-10-22T04:25:09.653Z,83.87
2022-10-22T04:27:37.750Z,83.85
2022-10-22T04:30:06.910Z,83.83
2022-10-22T04:32:34.767Z,83.81
2022-10-22T04:35:02.859Z,83.79
2022-10-22T04:37:30.633Z,83.75
2022-10-22T04:39:58.788Z,83.66
2022-10-22T04:42:26.824Z,83.67
2022-10-22T04:44:54.622Z,83.75
2022-10-22T04:47:22.530Z,83.80
2022-10-22T04:49:50.345Z,83.89
2022-10-22T04:52:18.064Z,83.98
2022-10-22T04:54:47.056Z,84.04
2022-10-22T04:57:14.826Z,84.11
2022-10-22T04:59:42.595Z,84.32
2022-10-22T05:02:10.312Z,84.43
2022-10-22T05:04:38.017Z,84.47
2022-10-22T05:07:05.874Z,84.50
2022-10-22T05:09:33.553Z,84.50
2022-10-22T05:12:01.612Z,84.49
2022-10-22T05:14:29.432Z,84.50
2022-10-22T05:16:57.254Z,84.50
2022-10-22T05:19:31.067Z,84.51
2022-10-22T05:22:02.166Z,84.52
2022-10-22T05:24:31.400Z,84.55
2022-10-22T05:27:04.230Z,84.57
2022-10-22T05:29:32.000Z,84.59
2022-10-22T05:31:59.921Z,84.62
2022-10-22T05:34:27.821Z,84.61
2022-10-22T05:36:55.786Z,84.62
2022-10-22T05:39:23.648Z,84.63
2022-10-22T05:41:51.663Z,84.65
2022-10-22T05:44:19.831Z,84.66
2022-10-22T05:46:47.698Z,84.66
2022-10-22T05:49:16.266Z,84.66
2022-10-22T05:51:44.083Z,84.69
2022-10-22T05:54:17.107Z,84.71
2022-10-22T05:56:45.062Z,84.73
2022-10-22T05:59:13.036Z,84.73
2022-10-22T06:01:41.415Z,84.73
2022-10-22T06:04:12.253Z,84.73
2022-10-22T06:06:44.796Z,84.72
2022-10-22T06:09:24.537Z,84.72
2022-10-22T06:11:53.066Z,84.74
2022-10-22T06:14:21.984Z,84.71
2022-10-22T06:16:50.236Z,84.67
2022-10-22T06:19:31.808Z,84.63
2022-10-22T06:21:59.890Z,84.61
2022-10-22T06:24:35.570Z,84.63
2022-10-22T06:27:03.818Z,84.63
2022-10-22T06:29:31.914Z,84.61
2022-10-22T06:32:01.031Z,84.56
2022-10-22T06:34:28.823Z,84.55
2022-10-22T06:36:56.652Z,84.51
2022-10-22T06:39:27.653Z,84.47
2022-10-22T06:41:55.455Z,84.42
2022-10-22T06:44:23.329Z,84.39
2022-10-22T06:46:53.919Z,84.35
2022-10-22T06:49:22.178Z,84.31
2022-10-22T06:51:54.627Z,84.26
2022-10-22T06:54:23.433Z,84.20
2022-10-22T06:56:51.380Z,84.17
2022-10-22T06:59:20.631Z,84.13
2022-10-22T07:01:48.670Z,84.13
2022-10-22T07:04:16.612Z,84.08
2022-10-22T07:06:44.582Z,84.01
2022-10-22T07:09:12.574Z,84.07
2022-10-22T07:11:45.679Z,84.10
2022-10-22T07:14:14.787Z,84.14
2022-10-22T07:16:43.262Z,84.10
2022-10-22T07:19:11.662Z,84.05
2022-10-22T07:21:39.844Z,83.93
2022-10-22T07:24:08.219Z,83.87
2022-10-22T07:26:37.021Z,83.80
2022-10-22T07:29:05.382Z,83.72
2022-10-22T07:31:33.182Z,83.64
2022-10-22T07:34:00.936Z,83.46
2022-10-22T07:36:28.741Z,83.32
2022-10-22T07:38:59.421Z,83.21
2022-10-22T07:41:29.813Z,83.14
2022-10-22T07:43:58.314Z,83.01
2022-10-22T07:46:27.009Z,82.95
2022-10-22T07:48:55.118Z,82.89
2022-10-22T07:51:23.450Z,82.81
2022-10-22T07:53:51.512Z,82.81
2022-10-22T07:56:26.788Z,82.78
2022-10-22T07:58:54.608Z,82.73
2022-10-22T08:01:22.549Z,82.74
2022-10-22T08:03:50.612Z,82.76
2022-10-22T08:06:18.537Z,82.73
2022-10-22T08:08:46.635Z,82.69
2022-10-22T08:11:14.835Z,82.67
2022-10-22T08:13:45.521Z,82.66
2022-10-22T08:16:14.815Z,82.69
2022-10-22T08:18:43.018Z,82.72
2022-10-22T08:21:15.683Z,82.67
2022-10-22T08:23:44.157Z,82.66
2022-10-22T08:26:12.155Z,82.66
2022-10-22T08:28:40.002Z,82.62
2022-10-22T08:31:08.998Z,82.53
2022-10-22T08:33:38.872Z,82.49
2022-10-22T08:36:07.884Z,82.45
2022-10-22T08:38:36.137Z,82.38
2022-10-22T08:41:09.102Z,82.38
2022-10-22T08:44:56.035Z,82.26
2022-10-22T08:47:49.483Z,82.17
2022-10-22T08:50:24.416Z,82.00
2022-10-22T08:52:56.466Z,81.93
2022-10-22T08:55:25.330Z,81.92
2022-10-22T08:58:20.350Z,81.97
2022-10-22T09:00:59.770Z,82.01
2022-10-22T09:03:30.590Z,81.98
2022-10-22T09:06:11.989Z,81.78
2022-10-22T09:08:42.869Z,81.49
2022-10-22T09:11:13.649Z,81.38
2022-10-22T09:13:43.997Z,81.01
2022-10-22T09:16:36.558Z,80.81
2022-10-22T09:19:16.486Z,80.50
2022-10-22T09:22:21.954Z,80.16
2022-10-22T09:24:58.252Z,80.02
2022-10-22T09:33:33.895Z,79.70
2022-10-22T09:36:03.770Z,79.99
2022-10-22T09:38:56.089Z,79.89
2022-10-22T09:41:30.118Z,79.61
2022-10-22T09:43:59.437Z,79.25
2022-10-22T09:46:30.518Z,79.11
2022-10-22T09:49:09.643Z,78.91
2022-10-22T09:52:00.731Z,78.86
2022-10-22T09:54:40.381Z,78.87
2022-10-22T09:57:22.229Z,78.75
2022-10-22T09:59:51.664Z,78.65
2022-10-22T10:02:39.220Z,78.72
2022-10-22T10:05:08.623Z,78.91
2022-10-22T10:07:37.249Z,78.84
2022-10-22T10:10:36.218Z,78.81
2022-10-22T10:13:49.228Z,78.95
2022-10-22T10:16:45.568Z,79.18
2022-10-22T10:20:03.703Z,79.34
2022-10-22T10:22:50.038Z,79.53
2022-10-22T10:25:36.256Z,79.66
2022-10-22T10:28:57.315Z,79.84
2022-10-22T10:31:49.622Z,80.03
2022-10-22T10:35:03.656Z,80.03
2022-10-22T10:37:40.716Z,80.03
2022-10-22T10:40:44.083Z,80.06
2022-10-22T10:43:44.131Z,80.21
2022-10-22T10:46:21.290Z,80.45
2022-10-22T10:48:53.932Z,80.44
2022-10-22T10:52:05.787Z,80.44
2022-10-22T10:54:55.364Z,80.32
2022-10-22T10:57:58.325Z,80.17
2022-10-22T11:00:28.089Z,80.17
2022-10-22T11:03:32.081Z,80.16
2022-10-22T11:06:25.660Z,80.11
2022-10-22T11:09:05.930Z,80.17
2022-10-22T11:11:44.670Z,80.25
2022-10-22T11:14:43.035Z,80.26
2022-10-22T11:17:15.157Z,80.28
2022-10-22T11:20:21.560Z,80.39
2022-10-22T11:23:23.301Z,80.39
2022-10-22T11:25:51.737Z,80.54
2022-10-22T11:28:29.944Z,80.66
2022-10-22T11:31:16.324Z,80.72
2022-10-22T11:34:09.795Z,80.79
2022-10-22T11:36:50.108Z,80.99
2022-10-22T11:39:59.904Z,81.19
2022-10-22T11:42:40.473Z,81.41
2022-10-22T11:45:14.548Z,81.67
2022-10-22T11:48:10.381Z,81.84
2022-10-22T11:50:41.327Z,82.00
2022-10-22T11:53:15.130Z,82.12
2022-10-22T11:56:07.734Z,82.13
2022-10-22T11:58:39.608Z,82.09
2022-10-22T12:01:07.383Z,82.15
2022-10-22T12:03:35.093Z,82.26
2022-10-22T12:06:18.445Z,82.34
2022-10-22T12:08:53.608Z,82.33
2022-10-22T12:11:47.981Z,82.33
2022-10-22T12:14:40.865Z,82.32
2022-10-22T12:17:14.585Z,82.37
2022-10-22T12:20:05.114Z,82.24
2022-10-22T12:22:40.183Z,82.11
2022-10-22T12:25:26.824Z,82.01
2022-10-22T12:28:01.079Z,82.10
2022-10-22T12:30:34.992Z,82.13
2022-10-22T12:33:19.294Z,82.20
2022-10-22T12:35:49.317Z,82.25
2022-10-22T12:38:27.373Z,82.29
2022-10-22T12:40:56.966Z,82.38
2022-10-22T12:43:31.957Z,82.44
2022-10-22T12:46:00.244Z,82.48
2022-10-22T12:48:39.223Z,82.54
2022-10-22T12:51:11.846Z,82.54
2022-10-22T12:53:47.407Z,82.56
2022-10-22T12:56:24.494Z,82.61
2022-10-22T12:59:15.977Z,82.65
2022-10-22T13:01:44.113Z,82.75
2022-10-22T13:04:35.706Z,82.78
2022-10-22T13:07:24.896Z,82.80
2022-10-22T13:10:02.646Z,82.88
2022-10-22T13:12:39.461Z,82.91
2022-10-22T13:15:36.934Z,82.95
2022-10-22T13:18:16.906Z,83.04
2022-10-22T13:20:56.708Z,83.06
2022-10-22T13:23:28.750Z,83.06
2022-10-22T13:26:10.391Z,83.05
2022-10-22T13:28:41.522Z,83.11
2022-10-22T13:31:22.140Z,83.16
2022-10-22T13:34:08.408Z,83.19
2022-10-22T13:36:39.173Z,83.25
2022-10-22T13:39:21.917Z,83.25
2022-10-22T13:41:50.835Z,83.25
2022-10-22T13:44:19.955Z,83.33
2022-10-22T13:46:48.958Z,83.41
2022-10-22T13:49:19.530Z,83.48
2022-10-22T13:51:47.626Z,83.55
2022-10-22T13:54:20.202Z,83.60
2022-10-22T13:56:48.632Z,83.63
2022-10-22T13:59:18.514Z,83.69
2022-10-22T14:01:49.310Z,83.71
2022-10-22T14:04:17.304Z,83.77
2022-10-22T14:06:45.342Z,83.81
2022-10-22T14:09:16.202Z,83.89
2022-10-22T14:11:45.558Z,83.95
2022-10-22T14:14:17.307Z,84.05
2022-10-22T14:16:45.642Z,84.09
2022-10-22T14:19:17.905Z,84.11
2022-10-22T14:21:45.902Z,84.27
2022-10-22T14:24:13.835Z,84.44
2022-10-22T14:26:41.983Z,84.60
2022-10-22T14:29:11.007Z,84.70
2022-10-22T14:31:49.876Z,84.83
2022-10-22T14:34:17.918Z,84.97
2022-10-22T14:36:45.799Z,85.08
2022-10-22T14:39:14.212Z,85.18
2022-10-22T14:41:43.067Z,85.26
2022-10-22T14:44:14.901Z,85.37
2022-10-22T14:46:44.408Z,85.46
2022-10-22T14:49:15.673Z,85.54
2022-10-22T14:51:43.501Z,85.64
2022-10-22T14:54:11.241Z,85.79
2022-10-22T14:56:38.964Z,85.91
2022-10-22T14:59:06.746Z,86.00
2022-10-22T15:01:34.506Z,86.07
2022-10-22T15:04:02.281Z,86.20
2022-10-22T15:06:30.080Z,86.37
2022-10-22T15:08:57.881Z,86.46
2022-10-22T15:11:25.659Z,86.57
2022-10-22T15:13:53.487Z,86.64
2022-10-22T15:16:21.841Z,86.71
2022-10-22T15:18:49.710Z,86.75
2022-10-22T15:21:21.820Z,86.77
2022-10-22T15:23:50.028Z,86.82
2022-10-22T15:26:18.360Z,86.87
2022-10-22T15:28:46.353Z,86.91
2022-10-22T15:31:15.199Z,86.98
2022-10-22T15:33:43.877Z,87.03
2022-10-22T15:36:15.946Z,87.07
2022-10-22T15:38:43.971Z,87.11
2022-10-22T15:41:12.609Z,87.17
2022-10-22T15:43:40.415Z,87.16
2022-10-22T15:46:16.257Z,87.16
2022-10-22T15:48:44.477Z,87.20
2022-10-22T15:51:16.058Z,87.23
2022-10-22T15:53:44.243Z,87.25
2022-10-22T15:56:12.154Z,87.29
2022-10-22T15:58:40.095Z,87.32
2022-10-22T16:01:11.959Z,87.36
2022-10-22T16:03:42.038Z,87.40
2022-10-22T16:06:09.983Z,87.44
2022-10-22T16:08:38.675Z,87.48
2022-10-22T16:11:06.484Z,87.85
2022-10-22T16:13:36.905Z,87.60
2022-10-22T16:16:08.217Z,85.91
2022-10-22T16:18:36.039Z,85.39
2022-10-22T16:21:04.184Z,85.71
2022-10-22T16:23:31.949Z,84.68
2022-10-22T16:26:02.680Z,83.31
2022-10-22T16:28:30.684Z,81.54
2022-10-22T16:31:05.990Z,81.15
2022-10-22T16:33:41.515Z,78.18
2022-10-22T16:36:18.117Z,76.93
2022-10-22T16:38:47.388Z,76.97
2022-10-22T16:41:20.385Z,77.16
2022-10-22T16:43:50.456Z,77.19
2022-10-22T16:46:21.626Z,77.69
2022-10-22T16:48:52.394Z,78.13
2022-10-22T16:51:24.104Z,78.56
2022-10-22T16:53:53.287Z,79.16
2022-10-22T16:56:21.823Z,79.27
2022-10-22T16:58:55.905Z,79.62
2022-10-22T17:01:27.078Z,79.94
2022-10-22T17:03:55.811Z,77.39
2022-10-22T17:06:25.384Z,76.75
2022-10-22T17:08:53.769Z,78.02
2022-10-22T17:11:24.532Z,75.35
2022-10-22T17:13:54.309Z,73.20
2022-10-22T17:16:24.991Z,73.29
2022-10-22T17:18:56.378Z,73.92
2022-10-22T17:21:24.695Z,74.94
2022-10-22T17:23:57.322Z,76.45
2022-10-22T17:26:27.026Z,74.11
2022-10-22T17:28:55.358Z,71.58
2022-10-22T17:31:38.147Z,70.75
2022-10-22T17:34:08.203Z,71.31
2022-10-22T17:37:58.904Z,72.77
2022-10-22T17:40:27.140Z,73.65
2022-10-22T17:42:55.210Z,74.24
2022-10-22T17:45:24.180Z,74.73
2022-10-22T17:47:52.346Z,75.47
2022-10-22T17:50:20.342Z,75.84
2022-10-22T17:52:51.774Z,76.42
2022-10-22T17:55:20.600Z,76.87
2022-10-22T17:57:50.249Z,77.37
2022-10-22T18:02:52.679Z,78.66
2022-10-22T18:05:22.352Z,79.32
2022-10-22T18:07:54.325Z,79.60
2022-10-22T18:10:23.358Z,80.14
2022-10-22T18:12:52.219Z,80.47
2022-10-22T18:15:21.691Z,80.94
2022-10-22T18:17:50.537Z,81.35
2022-10-22T18:20:18.619Z,81.85
2022-10-22T18:22:46.742Z,82.45
2022-10-22T18:25:14.873Z,82.72
2022-10-22T18:27:43.280Z,83.30
2022-10-22T18:30:13.993Z,83.22
2022-10-22T18:32:41.894Z,83.18
2022-10-22T18:35:09.776Z,83.39
2022-10-22T18:37:39.752Z,83.67
2022-10-22T18:40:13.692Z,84.09
2022-10-22T18:42:42.982Z,84.14
2022-10-22T18:45:12.200Z,84.22
2022-10-22T18:47:41.799Z,84.39
2022-10-22T18:50:10.214Z,84.56
2022-10-22T18:52:38.649Z,84.69
2022-10-22T18:55:07.383Z,84.86
2022-10-22T18:57:35.314Z,85.02
2022-10-22T19:00:08.616Z,85.17
2022-10-22T19:02:41.020Z,85.31
2022-10-22T19:05:12.286Z,85.49
2022-10-22T19:07:41.412Z,85.62
2022-10-22T19:10:09.893Z,85.75
2022-10-22T19:12:37.907Z,85.79
2022-10-22T19:15:06.864Z,85.81
2022-10-22T19:17:35.113Z,85.84
2022-10-22T19:20:04.008Z,85.85
2022-10-22T19:22:32.454Z,85.93
2022-10-22T19:25:00.331Z,85.96
2022-10-22T19:27:28.299Z,85.98
2022-10-22T19:29:56.272Z,86.00
2022-10-22T19:32:26.307Z,85.99
2022-10-22T19:34:57.315Z,85.99
2022-10-22T19:37:25.255Z,86.02
2022-10-22T19:39:53.043Z,86.01
2022-10-22T19:42:21.005Z,86.06
2022-10-22T19:44:49.106Z,86.16
2022-10-22T19:47:18.351Z,86.25
2022-10-22T19:49:46.409Z,86.32
2022-10-22T19:52:15.057Z,86.42
2022-10-22T19:54:45.969Z,86.49
2022-10-22T19:57:15.911Z,86.52
2022-10-22T19:59:44.549Z,86.52
2022-10-22T20:02:18.028Z,86.35
2022-10-22T20:04:49.862Z,86.35
2022-10-22T20:07:18.391Z,86.29
2022-10-22T20:09:46.498Z,86.20
2022-10-22T20:12:17.139Z,86.14
2022-10-22T20:14:44.953Z,86.16
2022-10-22T20:17:12.956Z,86.32
2022-10-22T20:19:43.314Z,86.46
2022-10-22T20:22:14.980Z,86.33
2022-10-22T20:24:46.314Z,86.27
2022-10-22T20:27:21.561Z,86.15
2022-10-22T20:29:49.650Z,86.01
2022-10-22T20:32:17.617Z,85.86
2022-10-22T20:34:45.611Z,85.72
2022-10-22T20:37:13.825Z,85.58
2022-10-22T20:39:43.337Z,85.40
2022-10-22T20:42:11.694Z,85.25
2022-10-22T20:44:40.546Z,85.09
2022-10-22T20:47:09.617Z,84.93
2022-10-22T20:49:37.839Z,84.79
2022-10-22T20:52:05.988Z,84.63
2022-10-22T20:54:33.811Z,84.53
2022-10-22T20:57:01.724Z,84.43
2022-10-22T20:59:33.370Z,84.37
2022-10-22T21:02:03.197Z,84.32
2022-10-22T21:04:32.116Z,84.25
2022-10-22T21:07:00.048Z,84.24
2022-10-22T21:09:28.281Z,84.29
2022-10-22T21:11:57.116Z,84.38
2022-10-22T21:14:26.797Z,84.47
2022-10-22T21:16:56.793Z,84.57
2022-10-22T21:26:27.372Z,84.73
2022-10-22T21:32:00.733Z,84.93
2022-10-22T21:34:28.702Z,85.05
2022-10-22T21:36:56.592Z,85.06
2022-10-22T21:39:24.599Z,84.99
2022-10-22T21:41:52.554Z,84.92
2022-10-22T21:44:20.435Z,84.81
2022-10-22T21:46:48.397Z,84.76
2022-10-22T21:49:18.349Z,84.77
2022-10-22T21:51:46.331Z,84.81
2022-10-22T21:54:14.353Z,84.85
2022-10-22T21:56:42.497Z,84.89
2022-10-22T21:59:10.456Z,85.00
2022-10-22T22:01:38.474Z,85.09
2022-10-22T22:04:06.433Z,85.20
2022-10-22T22:06:35.325Z,85.30
2022-10-22T22:09:05.270Z,85.44
2022-10-22T22:11:33.868Z,85.58
2022-10-22T22:14:08.097Z,85.66
2022-10-22T22:16:36.485Z,85.73
2022-10-22T22:19:08.534Z,85.80
2022-10-22T22:21:39.543Z,85.87
2022-10-22T22:24:09.413Z,85.95
2022-10-22T22:26:39.634Z,86.04
2022-10-22T22:29:07.780Z,86.15
2022-10-22T22:31:37.506Z,86.25
2022-10-22T22:34:12.843Z,86.30
2022-10-22T22:36:45.560Z,86.37
2022-10-22T22:39:17.472Z,86.43
2022-10-22T22:41:46.728Z,86.51
2022-10-22T22:44:15.123Z,86.56
2022-10-22T22:46:43.661Z,86.60
2022-10-22T22:49:13.892Z,86.63
2022-10-22T22:51:43.679Z,86.63
2022-10-22T22:54:11.867Z,86.66
2022-10-22T22:56:40.506Z,86.66
2022-10-22T22:59:08.456Z,86.64
2022-10-22T23:01:38.543Z,86.62
2022-10-22T23:04:22.797Z,86.61
2022-10-22T23:06:51.815Z,86.61
2022-10-22T23:11:53.999Z,86.60
2022-10-22T23:14:21.909Z,86.56
2022-10-22T23:16:52.519Z,86.57
2022-10-22T23:19:22.776Z,86.54
2022-10-22T23:21:54.473Z,86.50
2022-10-22T23:24:26.754Z,86.46
2022-10-22T23:26:56.621Z,86.36
2022-10-22T23:29:28.368Z,86.33
2022-10-22T23:32:00.342Z,86.30
2022-10-22T23:34:29.415Z,86.20
2022-10-22T23:36:58.455Z,86.13
2022-10-22T23:39:28.802Z,86.07
2022-10-22T23:41:56.894Z,86.00
2022-10-22T23:44:25.458Z,85.94
2022-10-22T23:46:53.485Z,85.84
2022-10-22T23:49:21.659Z,85.75
2022-10-22T23:51:49.514Z,85.64
2022-10-22T23:54:18.723Z,85.48
2022-10-22T23:56:47.411Z,85.36
2022-10-22T23:59:15.942Z,85.26
